sensor_id;sensor_type;location;lat;lon;timestamp;pressure;altitude;pressure_sealevel;temperature;humidity
10618;BME280;5356;43.526;26.534;2022-07-12T00:00:50;99271.16;;;19.33;72.29
10618;BME280;5356;43.526;26.534;2022-07-12T00:03:16;99279.03;;;19.29;72.32
10618;BME280;5356;43.526;26.534;2022-07-12T00:05:42;99278.75;;;19.31;72.23
10618;BME280;5356;43.526;26.534;2022-07-12T00:08:07;99276.03;;;19.36;72.34
10618;BME280;5356;43.526;26.534;2022-07-12T00:10:33;99283.06;;;19.37;72.20
10618;BME280;5356;43.526;26.534;2022-07-12T00:12:59;99281.97;;;19.33;71.92
10618;BME280;5356;43.526;26.534;2022-07-12T00:15:24;99281.19;;;19.27;71.80
10618;BME280;5356;43.526;26.534;2022-07-12T00:17:50;99282.81;;;19.23;72.06
10618;BME280;5356;43.526;26.534;2022-07-12T00:20:18;99286.88;;;19.11;72.97
10618;BME280;5356;43.526;26.534;2022-07-12T00:22:44;99282.59;;;19.15;72.83
10618;BME280;5356;43.526;26.534;2022-07-12T00:25:12;99283.94;;;19.17;72.44
10618;BME280;5356;43.526;26.534;2022-07-12T00:27:39;99281.22;;;19.17;72.63
10618;BME280;5356;43.526;26.534;2022-07-12T00:30:06;99272.03;;;19.23;72.08
10618;BME280;5356;43.526;26.534;2022-07-12T00:32:32;99274.72;;;19.23;72.18
10618;BME280;5356;43.526;26.534;2022-07-12T00:34:58;99276.88;;;19.26;71.88
10618;BME280;5356;43.526;26.534;2022-07-12T00:37:23;99272.25;;;19.37;71.94
10618;BME280;5356;43.526;26.534;2022-07-12T00:39:49;99287.34;;;19.43;71.89
10618;BME280;5356;43.526;26.534;2022-07-12T00:42:14;99287.34;;;19.48;71.37
10618;BME280;5356;43.526;26.534;2022-07-12T00:44:40;99281.94;;;19.54;71.51
10618;BME280;5356;43.526;26.534;2022-07-12T00:47:05;99277.03;;;19.56;71.27
10618;BME280;5356;43.526;26.534;2022-07-12T00:49:31;99283.00;;;19.52;70.88
10618;BME280;5356;43.526;26.534;2022-07-12T00:51:57;99278.94;;;19.55;70.81
10618;BME280;5356;43.526;26.534;2022-07-12T00:54:23;99271.69;;;19.40;70.82
10618;BME280;5356;43.526;26.534;2022-07-12T00:56:49;99276.56;;;19.43;70.70
10618;BME280;5356;43.526;26.534;2022-07-12T00:59:14;99277.13;;;19.35;70.88
10618;BME280;5356;43.526;26.534;2022-07-12T01:01:41;99284.13;;;19.36;70.85
10618;BME280;5356;43.526;26.534;2022-07-12T01:04:07;99291.94;;;19.48;70.40
10618;BME280;5356;43.526;26.534;2022-07-12T01:06:33;99289.50;;;19.46;70.57
10618;BME280;5356;43.526;26.534;2022-07-12T01:08:59;99285.53;;;19.28;70.99
10618;BME280;5356;43.526;26.534;2022-07-12T01:11:25;99282.03;;;19.23;70.83
10618;BME280;5356;43.526;26.534;2022-07-12T01:13:54;99283.06;;;19.27;71.27
10618;BME280;5356;43.526;26.534;2022-07-12T01:16:20;99284.72;;;19.23;71.12
10618;BME280;5356;43.526;26.534;2022-07-12T01:18:46;99290.13;;;19.18;71.21
10618;BME280;5356;43.526;26.534;2022-07-12T01:21:18;99285.81;;;19.17;71.97
10618;BME280;5356;43.526;26.534;2022-07-12T01:23:49;99284.19;;;19.16;71.44
10618;BME280;5356;43.526;26.534;2022-07-12T01:26:15;99279.34;;;19.13;71.74
10618;BME280;5356;43.526;26.534;2022-07-12T01:28:41;99270.69;;;19.16;71.20
10618;BME280;5356;43.526;26.534;2022-07-12T01:31:06;99274.19;;;19.16;71.48
10618;BME280;5356;43.526;26.534;2022-07-12T01:33:33;99271.78;;;19.10;71.17
10618;BME280;5356;43.526;26.534;2022-07-12T01:35:59;99273.69;;;19.09;70.67
10618;BME280;5356;43.526;26.534;2022-07-12T01:38:25;99268.56;;;18.97;71.23
10618;BME280;5356;43.526;26.534;2022-07-12T01:40:51;99279.63;;;19.01;71.06
10618;BME280;5356;43.526;26.534;2022-07-12T01:43:16;99274.53;;;18.89;71.51
10618;BME280;5356;43.526;26.534;2022-07-12T01:45:42;99275.06;;;18.91;71.39
10618;BME280;5356;43.526;26.534;2022-07-12T01:48:08;99278.28;;;18.98;71.26
10618;BME280;5356;43.526;26.534;2022-07-12T01:50:34;99275.31;;;19.00;71.30
10618;BME280;5356;43.526;26.534;2022-07-12T01:53:00;99270.97;;;19.04;70.65
10618;BME280;5356;43.526;26.534;2022-07-12T01:55:32;99281.78;;;19.09;70.38
10618;BME280;5356;43.526;26.534;2022-07-12T01:57:57;99270.19;;;18.98;70.26
10618;BME280;5356;43.526;26.534;2022-07-12T02:00:23;99273.44;;;18.90;70.00
10618;BME280;5356;43.526;26.534;2022-07-12T02:02:51;99265.34;;;18.95;70.19
10618;BME280;5356;43.526;26.534;2022-07-12T02:05:20;99278.28;;;18.93;70.10
10618;BME280;5356;43.526;26.534;2022-07-12T02:07:46;99271.03;;;18.89;70.05
10618;BME280;5356;43.526;26.534;2022-07-12T02:10:13;99270.72;;;18.90;70.02
10618;BME280;5356;43.526;26.534;2022-07-12T02:12:38;99279.66;;;18.86;69.81
10618;BME280;5356;43.526;26.534;2022-07-12T02:15:06;99278.56;;;18.76;69.85
10618;BME280;5356;43.526;26.534;2022-07-12T02:17:33;99278.31;;;18.83;69.76
10618;BME280;5356;43.526;26.534;2022-07-12T02:20:01;99285.31;;;18.74;70.15
10618;BME280;5356;43.526;26.534;2022-07-12T02:22:27;99278.28;;;18.73;70.08
10618;BME280;5356;43.526;26.534;2022-07-12T02:24:52;99289.63;;;18.65;70.41
10618;BME280;5356;43.526;26.534;2022-07-12T02:27:18;99284.50;;;18.58;71.25
10618;BME280;5356;43.526;26.534;2022-07-12T02:29:44;99285.84;;;18.60;70.92
10618;BME280;5356;43.526;26.534;2022-07-12T02:32:09;99282.88;;;18.57;71.61
10618;BME280;5356;43.526;26.534;2022-07-12T02:34:35;99287.47;;;18.51;71.20
10618;BME280;5356;43.526;26.534;2022-07-12T02:37:01;99294.47;;;18.52;71.43
10618;BME280;5356;43.526;26.534;2022-07-12T02:39:26;99288.53;;;18.50;71.46
10618;BME280;5356;43.526;26.534;2022-07-12T02:41:52;99290.97;;;18.57;71.34
10618;BME280;5356;43.526;26.534;2022-07-12T02:44:20;99296.91;;;18.69;70.77
10618;BME280;5356;43.526;26.534;2022-07-12T02:46:52;99303.97;;;18.75;70.82
10618;BME280;5356;43.526;26.534;2022-07-12T02:49:18;99309.34;;;18.75;69.95
10618;BME280;5356;43.526;26.534;2022-07-12T02:51:46;99308.78;;;18.73;70.03
10618;BME280;5356;43.526;26.534;2022-07-12T02:54:11;99304.75;;;18.76;70.32
10618;BME280;5356;43.526;26.534;2022-07-12T02:56:40;99310.94;;;18.61;70.46
10618;BME280;5356;43.526;26.534;2022-07-12T02:59:06;99312.03;;;18.55;71.66
10618;BME280;5356;43.526;26.534;2022-07-12T03:01:31;99311.19;;;18.59;70.80
10618;BME280;5356;43.526;26.534;2022-07-12T03:03:57;99310.69;;;18.57;70.68
10618;BME280;5356;43.526;26.534;2022-07-12T03:06:22;99307.41;;;18.50;70.53
10618;BME280;5356;43.526;26.534;2022-07-12T03:08:48;99302.59;;;18.57;70.32
10618;BME280;5356;43.526;26.534;2022-07-12T03:11:16;99307.44;;;18.66;70.60
10618;BME280;5356;43.526;26.534;2022-07-12T03:13:42;99316.09;;;18.78;70.25
10618;BME280;5356;43.526;26.534;2022-07-12T03:16:08;99317.16;;;18.87;70.63
10618;BME280;5356;43.526;26.534;2022-07-12T03:18:40;99304.22;;;18.94;71.32
10618;BME280;5356;43.526;26.534;2022-07-12T03:21:06;99314.19;;;18.94;71.37
10618;BME280;5356;43.526;26.534;2022-07-12T03:23:31;99310.41;;;18.79;71.88
10618;BME280;5356;43.526;26.534;2022-07-12T03:25:57;99315.25;;;18.67;72.74
10618;BME280;5356;43.526;26.534;2022-07-12T03:28:23;99320.09;;;18.70;73.04
10618;BME280;5356;43.526;26.534;2022-07-12T03:30:51;99318.22;;;18.71;73.49
10618;BME280;5356;43.526;26.534;2022-07-12T03:33:19;99318.19;;;18.45;75.07
10618;BME280;5356;43.526;26.534;2022-07-12T03:35:48;99318.22;;;18.55;74.72
10618;BME280;5356;43.526;26.534;2022-07-12T03:38:14;99322.28;;;18.58;75.12
10618;BME280;5356;43.526;26.534;2022-07-12T03:40:43;99324.16;;;18.57;74.82
10618;BME280;5356;43.526;26.534;2022-07-12T03:43:11;99320.13;;;18.60;74.70
10618;BME280;5356;43.526;26.534;2022-07-12T03:45:39;99316.63;;;18.54;74.98
10618;BME280;5356;43.526;26.534;2022-07-12T03:48:07;99323.63;;;18.55;75.29
10618;BME280;5356;43.526;26.534;2022-07-12T03:50:42;99321.72;;;18.51;75.49
10618;BME280;5356;43.526;26.534;2022-07-12T03:53:07;99328.19;;;18.39;74.63
10618;BME280;5356;43.526;26.534;2022-07-12T03:55:33;99323.06;;;18.43;74.07
10618;BME280;5356;43.526;26.534;2022-07-12T03:57:58;99324.41;;;18.51;74.05
10618;BME280;5356;43.526;26.534;2022-07-12T04:00:24;99323.59;;;18.45;73.35
10618;BME280;5356;43.526;26.534;2022-07-12T04:02:50;99320.91;;;18.35;72.86
10618;BME280;5356;43.526;26.534;2022-07-12T04:05:19;99326.25;;;18.25;73.68
10618;BME280;5356;43.526;26.534;2022-07-12T04:07:45;99314.41;;;18.31;73.82
10618;BME280;5356;43.526;26.534;2022-07-12T04:10:11;99322.25;;;18.37;73.86
10618;BME280;5356;43.526;26.534;2022-07-12T04:12:40;99329.25;;;18.38;74.04
10618;BME280;5356;43.526;26.534;2022-07-12T04:15:06;99333.03;;;18.43;74.16
10618;BME280;5356;43.526;26.534;2022-07-12T04:17:32;99337.09;;;18.45;73.99
10618;BME280;5356;43.526;26.534;2022-07-12T04:20:04;99330.66;;;18.51;73.61
10618;BME280;5356;43.526;26.534;2022-07-12T04:22:31;99336.59;;;18.63;73.88
10618;BME280;5356;43.526;26.534;2022-07-12T04:24:57;99340.13;;;18.74;73.36
10618;BME280;5356;43.526;26.534;2022-07-12T04:27:26;99338.75;;;18.72;73.63
10618;BME280;5356;43.526;26.534;2022-07-12T04:29:52;99346.88;;;18.77;73.10
10618;BME280;5356;43.526;26.534;2022-07-12T04:32:18;99340.94;;;18.75;73.14
10618;BME280;5356;43.526;26.534;2022-07-12T04:34:44;99345.78;;;18.78;73.54
10618;BME280;5356;43.526;26.534;2022-07-12T04:37:09;99344.41;;;18.70;73.03
10618;BME280;5356;43.526;26.534;2022-07-12T04:39:35;99345.50;;;18.69;72.57
10618;BME280;5356;43.526;26.534;2022-07-12T04:42:01;99347.94;;;18.76;72.19
10618;BME280;5356;43.526;26.534;2022-07-12T04:44:27;99345.75;;;18.68;71.69
10618;BME280;5356;43.526;26.534;2022-07-12T04:46:55;99343.06;;;18.73;72.20
10618;BME280;5356;43.526;26.534;2022-07-12T04:49:21;99345.78;;;18.78;72.67
10618;BME280;5356;43.526;26.534;2022-07-12T04:51:47;99340.66;;;18.92;72.53
10618;BME280;5356;43.526;26.534;2022-07-12T04:54:12;99339.28;;;18.99;72.33
10618;BME280;5356;43.526;26.534;2022-07-12T04:56:38;99343.59;;;19.11;72.88
10618;BME280;5356;43.526;26.534;2022-07-12T04:59:03;99337.69;;;19.09;73.05
10618;BME280;5356;43.526;26.534;2022-07-12T05:01:29;99343.06;;;19.19;72.92
10618;BME280;5356;43.526;26.534;2022-07-12T05:03:55;99350.91;;;19.15;72.33
10618;BME280;5356;43.526;26.534;2022-07-12T05:06:21;99355.22;;;19.16;72.04
10618;BME280;5356;43.526;26.534;2022-07-12T05:08:48;99350.34;;;19.28;71.82
10618;BME280;5356;43.526;26.534;2022-07-12T05:11:17;99346.25;;;19.36;71.67
10618;BME280;5356;43.526;26.534;2022-07-12T05:13:43;99350.06;;;19.40;71.54
10618;BME280;5356;43.526;26.534;2022-07-12T05:16:08;99350.06;;;19.40;71.23
10618;BME280;5356;43.526;26.534;2022-07-12T05:18:34;99352.75;;;19.40;70.78
10618;BME280;5356;43.526;26.534;2022-07-12T05:21:00;99351.66;;;19.41;70.90
10618;BME280;5356;43.526;26.534;2022-07-12T05:23:26;99357.06;;;19.36;70.88
10618;BME280;5356;43.526;26.534;2022-07-12T05:25:52;99354.91;;;19.38;71.05
10618;BME280;5356;43.526;26.534;2022-07-12T05:28:18;99355.16;;;19.42;71.54
10618;BME280;5356;43.526;26.534;2022-07-12T05:30:43;99357.59;;;19.54;72.07
10618;BME280;5356;43.526;26.534;2022-07-12T05:33:09;99350.00;;;19.56;71.96
10618;BME280;5356;43.526;26.534;2022-07-12T05:35:35;99349.44;;;19.64;71.28
10618;BME280;5356;43.526;26.534;2022-07-12T05:38:01;99350.53;;;19.73;71.38
10618;BME280;5356;43.526;26.534;2022-07-12T05:40:27;99358.06;;;19.81;70.76
10618;BME280;5356;43.526;26.534;2022-07-12T05:42:53;99344.84;;;19.80;70.67
10618;BME280;5356;43.526;26.534;2022-07-12T05:45:18;99352.63;;;19.86;70.33
10618;BME280;5356;43.526;26.534;2022-07-12T05:47:44;99355.66;;;19.80;70.26
10618;BME280;5356;43.526;26.534;2022-07-12T05:50:10;99348.34;;;19.80;70.13
10618;BME280;5356;43.526;26.534;2022-07-12T05:52:36;99347.53;;;19.80;70.26
10618;BME280;5356;43.526;26.534;2022-07-12T05:55:20;99349.66;;;19.88;70.78
10618;BME280;5356;43.526;26.534;2022-07-12T05:57:45;99348.25;;;19.95;70.07
10618;BME280;5356;43.526;26.534;2022-07-12T06:00:11;99344.78;;;19.90;69.94
10618;BME280;5356;43.526;26.534;2022-07-12T06:02:37;99342.34;;;19.88;70.45
10618;BME280;5356;43.526;26.534;2022-07-12T06:05:02;99340.97;;;19.96;70.99
10618;BME280;5356;43.526;26.534;2022-07-12T06:07:28;99335.81;;;20.05;70.63
10618;BME280;5356;43.526;26.534;2022-07-12T06:09:53;99337.63;;;20.14;70.92
10618;BME280;5356;43.526;26.534;2022-07-12T06:12:19;99332.16;;;20.25;71.42
10618;BME280;5356;43.526;26.534;2022-07-12T06:14:45;99326.41;;;20.36;70.52
10618;BME280;5356;43.526;26.534;2022-07-12T06:17:10;99340.41;;;20.49;69.76
10618;BME280;5356;43.526;26.534;2022-07-12T06:19:36;99323.00;;;20.65;69.70
10618;BME280;5356;43.526;26.534;2022-07-12T06:22:01;99322.59;;;20.82;69.00
10618;BME280;5356;43.526;26.534;2022-07-12T06:24:28;99326.59;;;20.90;67.93
10618;BME280;5356;43.526;26.534;2022-07-12T06:26:53;99325.47;;;20.91;66.67
10618;BME280;5356;43.526;26.534;2022-07-12T06:29:19;99338.41;;;20.99;66.33
10618;BME280;5356;43.526;26.534;2022-07-12T06:31:44;99327.50;;;21.09;65.92
10618;BME280;5356;43.526;26.534;2022-07-12T06:34:09;99331.25;;;21.13;65.77
10618;BME280;5356;43.526;26.534;2022-07-12T06:36:35;99338.22;;;21.19;65.48
10618;BME280;5356;43.526;26.534;2022-07-12T06:39:00;99340.41;;;21.17;64.04
10618;BME280;5356;43.526;26.534;2022-07-12T06:41:26;99340.34;;;21.22;63.70
10618;BME280;5356;43.526;26.534;2022-07-12T06:43:54;99335.25;;;21.21;63.40
10618;BME280;5356;43.526;26.534;2022-07-12T06:46:20;99338.00;;;21.16;62.73
10618;BME280;5356;43.526;26.534;2022-07-12T06:48:45;99338.00;;;21.16;62.45
10618;BME280;5356;43.526;26.534;2022-07-12T06:51:11;99331.44;;;21.22;62.25
10618;BME280;5356;43.526;26.534;2022-07-12T06:53:36;99333.78;;;21.28;62.71
10618;BME280;5356;43.526;26.534;2022-07-12T06:56:02;99338.63;;;21.37;62.10
10618;BME280;5356;43.526;26.534;2022-07-12T06:58:28;99339.84;;;21.49;62.58
10618;BME280;5356;43.526;26.534;2022-07-12T07:00:53;99338.28;;;21.67;62.61
10618;BME280;5356;43.526;26.534;2022-07-12T07:03:19;99335.47;;;21.78;62.82
10618;BME280;5356;43.526;26.534;2022-07-12T07:05:44;99335.25;;;21.93;62.25
10618;BME280;5356;43.526;26.534;2022-07-12T07:08:10;99333.22;;;22.04;61.45
10618;BME280;5356;43.526;26.534;2022-07-12T07:10:35;99337.69;;;22.13;59.91
10618;BME280;5356;43.526;26.534;2022-07-12T07:13:01;99339.28;;;22.19;59.26
10618;BME280;5356;43.526;26.534;2022-07-12T07:15:26;99332.09;;;22.29;60.00
10618;BME280;5356;43.526;26.534;2022-07-12T07:17:52;99335.38;;;22.45;60.18
10618;BME280;5356;43.526;26.534;2022-07-12T07:20:17;99338.16;;;22.58;59.32
10618;BME280;5356;43.526;26.534;2022-07-12T07:22:43;99340.59;;;22.60;57.94
10618;BME280;5356;43.526;26.534;2022-07-12T07:25:08;99335.38;;;22.63;57.38
10618;BME280;5356;43.526;26.534;2022-07-12T07:27:34;99335.69;;;22.62;57.02
10618;BME280;5356;43.526;26.534;2022-07-12T07:30:00;99343.44;;;22.69;56.96
10618;BME280;5356;43.526;26.534;2022-07-12T07:32:44;99341.72;;;22.73;57.29
10618;BME280;5356;43.526;26.534;2022-07-12T07:35:10;99339.16;;;22.81;57.04
10618;BME280;5356;43.526;26.534;2022-07-12T07:37:35;99332.91;;;22.81;56.34
10618;BME280;5356;43.526;26.534;2022-07-12T07:40:01;99333.63;;;22.86;56.72
10618;BME280;5356;43.526;26.534;2022-07-12T07:42:28;99343.09;;;22.89;56.41
10618;BME280;5356;43.526;26.534;2022-07-12T07:44:53;99342.38;;;23.02;56.68
10618;BME280;5356;43.526;26.534;2022-07-12T07:47:19;99342.91;;;23.18;56.77
10618;BME280;5356;43.526;26.534;2022-07-12T07:49:45;99343.94;;;23.22;56.39
10618;BME280;5356;43.526;26.534;2022-07-12T07:52:10;99348.34;;;23.32;56.35
10618;BME280;5356;43.526;26.534;2022-07-12T07:54:36;99347.75;;;23.35;56.05
10618;BME280;5356;43.526;26.534;2022-07-12T07:57:01;99350.47;;;23.35;55.97
10618;BME280;5356;43.526;26.534;2022-07-12T07:59:27;99349.56;;;23.26;56.18
10618;BME280;5356;43.526;26.534;2022-07-12T08:01:52;99355.69;;;23.18;55.96
10618;BME280;5356;43.526;26.534;2022-07-12T08:04:19;99345.63;;;23.18;56.72
10618;BME280;5356;43.526;26.534;2022-07-12T08:06:46;99357.19;;;23.24;56.68
10618;BME280;5356;43.526;26.534;2022-07-12T08:09:12;99342.81;;;23.23;56.16
10618;BME280;5356;43.526;26.534;2022-07-12T08:11:38;99350.59;;;23.44;56.50
10618;BME280;5356;43.526;26.534;2022-07-12T08:14:04;99342.94;;;23.60;56.37
10618;BME280;5356;43.526;26.534;2022-07-12T08:16:31;99350.41;;;23.68;55.72
10618;BME280;5356;43.526;26.534;2022-07-12T08:18:56;99352.56;;;23.71;55.81
10618;BME280;5356;43.526;26.534;2022-07-12T08:21:22;99353.44;;;23.80;55.76
10618;BME280;5356;43.526;26.534;2022-07-12T08:23:49;99357.91;;;23.90;56.03
10618;BME280;5356;43.526;26.534;2022-07-12T08:26:14;99356.25;;;23.89;54.86
10618;BME280;5356;43.526;26.534;2022-07-12T08:28:40;99350.19;;;24.06;54.87
10618;BME280;5356;43.526;26.534;2022-07-12T08:31:05;99358.16;;;24.02;54.33
10618;BME280;5356;43.526;26.534;2022-07-12T08:33:31;99353.00;;;24.14;55.02
10618;BME280;5356;43.526;26.534;2022-07-12T08:35:56;99349.78;;;24.26;54.82
10618;BME280;5356;43.526;26.534;2022-07-12T08:38:23;99348.09;;;24.39;54.88
10618;BME280;5356;43.526;26.534;2022-07-12T08:40:49;99342.84;;;24.42;54.51
10618;BME280;5356;43.526;26.534;2022-07-12T08:43:14;99354.41;;;24.62;54.43
10618;BME280;5356;43.526;26.534;2022-07-12T08:45:40;99348.06;;;24.67;54.47
10618;BME280;5356;43.526;26.534;2022-07-12T08:48:08;99336.72;;;24.73;53.59
10618;BME280;5356;43.526;26.534;2022-07-12T08:50:34;99342.16;;;24.73;54.25
10618;BME280;5356;43.526;26.534;2022-07-12T08:53:00;99339.88;;;24.67;53.43
10618;BME280;5356;43.526;26.534;2022-07-12T08:57:58;99335.22;;;24.45;53.64
10618;BME280;5356;43.526;26.534;2022-07-12T09:00:26;99326.00;;;24.54;53.62
10618;BME280;5356;43.526;26.534;2022-07-12T09:02:54;99330.91;;;24.66;53.60
10618;BME280;5356;43.526;26.534;2022-07-12T09:05:21;99318.50;;;24.82;53.86
10618;BME280;5356;43.526;26.534;2022-07-12T09:07:48;99319.38;;;25.14;53.76
10618;BME280;5356;43.526;26.534;2022-07-12T09:10:14;99322.59;;;25.25;52.52
10618;BME280;5356;43.526;26.534;2022-07-12T09:12:40;99317.38;;;25.37;52.38
10618;BME280;5356;43.526;26.534;2022-07-12T09:17:38;99310.66;;;25.43;51.32
10618;BME280;5356;43.526;26.534;2022-07-12T09:20:05;99312.63;;;25.51;51.24
10618;BME280;5356;43.526;26.534;2022-07-12T09:22:33;99305.72;;;25.54;51.41
10618;BME280;5356;43.526;26.534;2022-07-12T09:25:08;99308.00;;;25.69;51.46
10618;BME280;5356;43.526;26.534;2022-07-12T09:27:34;99302.91;;;25.76;51.15
10618;BME280;5356;43.526;26.534;2022-07-12T09:30:00;99293.63;;;25.95;50.51
10618;BME280;5356;43.526;26.534;2022-07-12T09:32:25;99289.34;;;26.20;50.77
10618;BME280;5356;43.526;26.534;2022-07-12T09:35:09;99288.19;;;26.30;50.63
10618;BME280;5356;43.526;26.534;2022-07-12T09:37:53;99290.63;;;26.14;50.32
10618;BME280;5356;43.526;26.534;2022-07-12T09:40:20;99297.53;;;26.11;49.97
10618;BME280;5356;43.526;26.534;2022-07-12T09:42:46;99291.06;;;25.90;50.12
10618;BME280;5356;43.526;26.534;2022-07-12T09:45:12;99297.16;;;25.87;50.13
10618;BME280;5356;43.526;26.534;2022-07-12T09:47:38;99292.34;;;25.84;50.13
10618;BME280;5356;43.526;26.534;2022-07-12T09:50:05;99296.31;;;25.77;49.76
10618;BME280;5356;43.526;26.534;2022-07-12T09:52:36;99298.16;;;26.00;49.73
10618;BME280;5356;43.526;26.534;2022-07-12T09:55:02;99297.53;;;26.29;49.52
10618;BME280;5356;43.526;26.534;2022-07-12T09:57:33;99306.72;;;26.50;48.45
10618;BME280;5356;43.526;26.534;2022-07-12T10:00:00;99293.03;;;26.68;48.12
10618;BME280;5356;43.526;26.534;2022-07-12T10:02:26;99295.09;;;26.79;48.13
10618;BME280;5356;43.526;26.534;2022-07-12T10:04:53;99290.75;;;26.87;47.87
10618;BME280;5356;43.526;26.534;2022-07-12T10:07:19;99294.59;;;26.86;47.67
10618;BME280;5356;43.526;26.534;2022-07-12T10:09:47;99292.88;;;26.73;47.58
10618;BME280;5356;43.526;26.534;2022-07-12T10:12:17;99294.28;;;26.87;47.23
10618;BME280;5356;43.526;26.534;2022-07-12T10:14:44;99286.53;;;26.98;46.92
10618;BME280;5356;43.526;26.534;2022-07-12T10:17:11;99289.72;;;27.00;46.59
10618;BME280;5356;43.526;26.534;2022-07-12T10:19:39;99285.72;;;26.98;46.57
10618;BME280;5356;43.526;26.534;2022-07-12T10:22:06;99290.69;;;27.04;45.70
10618;BME280;5356;43.526;26.534;2022-07-12T10:29:48;99284.75;;;27.79;44.66
10618;BME280;5356;43.526;26.534;2022-07-12T10:32:34;99288.38;;;27.92;43.41
10618;BME280;5356;43.526;26.534;2022-07-12T10:35:04;99292.72;;;27.93;43.22
10618;BME280;5356;43.526;26.534;2022-07-12T10:37:34;99286.03;;;27.73;42.76
10618;BME280;5356;43.526;26.534;2022-07-12T10:42:37;99287.28;;;27.16;42.15
10618;BME280;5356;43.526;26.534;2022-07-12T10:45:14;99280.69;;;27.08;42.52
10618;BME280;5356;43.526;26.534;2022-07-12T10:47:57;99285.56;;;26.94;41.69
10618;BME280;5356;43.526;26.534;2022-07-12T10:53:36;99290.13;;;26.73;42.63
10618;BME280;5356;43.526;26.534;2022-07-12T10:56:18;99291.31;;;27.19;43.01
10618;BME280;5356;43.526;26.534;2022-07-12T10:58:49;99285.22;;;27.04;42.87
10618;BME280;5356;43.526;26.534;2022-07-12T11:01:22;99288.09;;;27.08;42.92
10618;BME280;5356;43.526;26.534;2022-07-12T11:03:48;99283.31;;;26.96;42.75
10618;BME280;5356;43.526;26.534;2022-07-12T11:06:19;99294.28;;;26.79;42.54
10618;BME280;5356;43.526;26.534;2022-07-12T11:11:30;99285.91;;;26.93;43.01
10618;BME280;5356;43.526;26.534;2022-07-12T11:13:59;99281.06;;;26.98;43.27
10618;BME280;5356;43.526;26.534;2022-07-12T11:16:25;99286.94;;;27.26;42.80
10618;BME280;5356;43.526;26.534;2022-07-12T11:18:51;99277.66;;;27.48;42.95
10618;BME280;5356;43.526;26.534;2022-07-12T11:21:17;99286.84;;;27.73;42.33
10618;BME280;5356;43.526;26.534;2022-07-12T11:23:43;99292.47;;;27.47;41.99
10618;BME280;5356;43.526;26.534;2022-07-12T11:26:10;99288.69;;;27.31;42.13
10618;BME280;5356;43.526;26.534;2022-07-12T11:28:37;99287.59;;;27.06;42.25
10618;BME280;5356;43.526;26.534;2022-07-12T11:33:34;99284.63;;;26.90;41.82
10618;BME280;5356;43.526;26.534;2022-07-12T11:36:03;99282.38;;;26.92;41.77
10618;BME280;5356;43.526;26.534;2022-07-12T11:38:29;99284.63;;;26.90;41.80
10618;BME280;5356;43.526;26.534;2022-07-12T11:40:58;99277.84;;;26.96;41.99
10618;BME280;5356;43.526;26.534;2022-07-12T11:43:25;99277.00;;;27.04;42.01
10618;BME280;5356;43.526;26.534;2022-07-12T11:45:51;99281.72;;;26.95;41.75
10618;BME280;5356;43.526;26.534;2022-07-12T11:48:18;99278.66;;;26.88;41.45
10618;BME280;5356;43.526;26.534;2022-07-12T11:50:43;99280.09;;;26.94;41.90
10618;BME280;5356;43.526;26.534;2022-07-12T11:53:22;99283.03;;;27.36;41.50
10618;BME280;5356;43.526;26.534;2022-07-12T11:55:50;99271.91;;;27.41;41.20
10618;BME280;5356;43.526;26.534;2022-07-12T11:58:17;99282.38;;;27.39;40.87
10618;BME280;5356;43.526;26.534;2022-07-12T12:00:44;99281.38;;;27.44;40.89
10618;BME280;5356;43.526;26.534;2022-07-12T12:03:11;99273.50;;;27.42;41.33
10618;BME280;5356;43.526;26.534;2022-07-12T12:05:38;99281.41;;;27.65;40.56
10618;BME280;5356;43.526;26.534;2022-07-12T12:08:07;99267.06;;;27.97;40.33
10618;BME280;5356;43.526;26.534;2022-07-12T12:10:35;99261.66;;;28.10;40.03
10618;BME280;5356;43.526;26.534;2022-07-12T12:13:01;99273.34;;;28.19;39.50
10618;BME280;5356;43.526;26.534;2022-07-12T12:15:29;99274.53;;;28.51;39.45
10618;BME280;5356;43.526;26.534;2022-07-12T12:18:02;99268.88;;;28.69;37.94
10618;BME280;5356;43.526;26.534;2022-07-12T12:22:57;99260.34;;;28.82;36.23
10618;BME280;5356;43.526;26.534;2022-07-12T12:25:24;99255.50;;;29.13;36.67
10618;BME280;5356;43.526;26.534;2022-07-12T12:27:58;99255.91;;;28.90;35.92
10618;BME280;5356;43.526;26.534;2022-07-12T12:30:26;99256.19;;;28.64;37.02
10618;BME280;5356;43.526;26.534;2022-07-12T12:32:56;99262.09;;;28.33;36.81
10618;BME280;5356;43.526;26.534;2022-07-12T12:35:35;99268.38;;;28.33;37.33
10618;BME280;5356;43.526;26.534;2022-07-12T12:38:14;99263.03;;;28.58;36.70
10618;BME280;5356;43.526;26.534;2022-07-12T12:40:49;99257.41;;;28.87;36.40
10618;BME280;5356;43.526;26.534;2022-07-12T12:43:18;99247.53;;;28.74;36.22
10618;BME280;5356;43.526;26.534;2022-07-12T12:45:56;99254.28;;;28.77;36.72
10618;BME280;5356;43.526;26.534;2022-07-12T12:48:26;99255.16;;;29.26;36.47
10618;BME280;5356;43.526;26.534;2022-07-12T12:50:53;99248.66;;;29.68;36.13
10618;BME280;5356;43.526;26.534;2022-07-12T12:53:22;99243.38;;;29.75;34.65
10618;BME280;5356;43.526;26.534;2022-07-12T12:55:52;99242.09;;;29.85;35.23
10618;BME280;5356;43.526;26.534;2022-07-12T12:58:19;99238.72;;;30.04;34.88
10618;BME280;5356;43.526;26.534;2022-07-12T13:00:47;99242.66;;;30.31;34.83
10618;BME280;5356;43.526;26.534;2022-07-12T13:03:16;99255.31;;;30.07;33.67
10618;BME280;5356;43.526;26.534;2022-07-12T13:05:45;99252.28;;;29.84;33.47
10618;BME280;5356;43.526;26.534;2022-07-12T13:08:12;99249.72;;;30.04;33.76
10618;BME280;5356;43.526;26.534;2022-07-12T13:10:39;99232.88;;;30.05;33.88
10618;BME280;5356;43.526;26.534;2022-07-12T13:13:05;99243.16;;;30.08;33.45
10618;BME280;5356;43.526;26.534;2022-07-12T13:15:31;99246.44;;;29.98;33.05
10618;BME280;5356;43.526;26.534;2022-07-12T13:17:57;99249.06;;;30.35;33.31
10618;BME280;5356;43.526;26.534;2022-07-12T13:20:24;99240.53;;;30.40;32.02
10618;BME280;5356;43.526;26.534;2022-07-12T13:22:51;99238.91;;;30.67;32.06